Time;durP1;ratioP1;P1;durP2;ratioP2;P2;SDS_P1;SDS_P2;PMS_P1;PMS_P2;Temp;Humidity;BMP_temperature;BMP_pressure;BME280_temperature;BME280_humidity;BME280_pressure;Samples;Min_cycle;Max_cycle;Signal;HPM_P1;HPM_P2
2022/07/18 00:00:31;;;;;;;;;;;;;;;12.84;81.25;99965.20;109196;1274;140088;-59
2022/07/18 00:02:57;;;;;;;1.60;1.20;;;;;;;12.82;81.46;99970.34;109338;1274;22518;-59
2022/07/18 00:05:24;;;;;;;2.50;1.30;;;;;;;12.80;81.31;99971.75;109158;1274;139894;-58
2022/07/18 00:07:51;;;;;;;;;;;;;;;12.79;81.41;99977.98;109307;1274;23256;-59
2022/07/18 00:10:18;;;;;;;3.70;1.40;;;;;;;12.77;81.27;99980.46;109307;1277;22565;-59
2022/07/18 00:12:45;;;;;;;2.70;1.70;;;;;;;12.75;81.44;99981.48;109170;1276;138239;-59
2022/07/18 00:15:11;;;;;;;;;;;;;;;12.76;81.51;99981.77;109284;1276;23672;-59
2022/07/18 00:17:38;;;;;;;1.90;1.50;;;;;;;12.76;81.79;99972.36;109131;1276;126464;-59
2022/07/18 00:20:06;;;;;;;4.90;1.60;;;;;;;12.75;81.78;99974.70;109393;1274;23212;-60
2022/07/18 00:22:33;;;;;;;2.40;1.40;;;;;;;12.76;81.85;99974.06;109395;1274;22657;-60
2022/07/18 00:25:00;;;;;;;1.90;1.50;;;;;;;12.76;81.90;99971.27;109118;1276;139976;-59
2022/07/18 00:27:26;;;;;;;3.50;1.60;;;;;;;12.76;82.13;99973.84;109407;1274;23074;-60
2022/07/18 00:29:53;;;;;;;5.30;1.80;;;;;;;12.78;81.91;99977.91;109248;1274;138984;-59
2022/07/18 00:32:20;;;;;;;;;;;;;;;12.79;81.88;99973.48;109413;1274;23269;-59
2022/07/18 00:34:47;;;;;;;2.20;1.30;;;;;;;12.79;81.99;99973.98;109196;1276;22262;-59
2022/07/18 00:37:13;;;;;;;3.60;1.30;;;;;;;12.77;81.92;99981.18;109330;1274;139049;-60
2022/07/18 00:39:40;;;;;;;;;;;;;;;12.76;81.86;99984.07;108410;1273;24008;-59
2022/07/18 00:42:07;;;;;;;1.40;1.10;;;;;;;12.75;81.81;99989.58;104930;1274;125346;-58
2022/07/18 00:44:34;;;;;;;3.20;1.90;;;;;;;12.72;81.74;99989.55;105036;1274;24253;-58
2022/07/18 00:47:01;;;;;;;;;;;;;;;12.69;81.84;99982.19;105088;1274;22731;-58
2022/07/18 00:49:28;;;;;;;2.40;1.80;;;;;;;12.70;81.92;99984.78;109160;1277;125540;-59
2022/07/18 00:51:55;;;;;;;2.10;1.40;;;;;;;12.69;82.00;99987.67;109336;1274;23198;-60
2022/07/18 00:54:22;;;;;;;3.80;1.80;;;;;;;12.67;81.89;99987.28;109272;1274;137916;-60
2022/07/18 00:56:49;;;;;;;5.50;1.50;;;;;;;12.65;81.86;99989.95;109439;1274;22457;-59
2022/07/18 00:59:16;;;;;;;2.00;1.40;;;;;;;12.64;81.84;99995.02;109329;1273;138831;-59
2022/07/18 01:01:43;;;;;;;1.90;1.60;;;;;;;12.62;82.03;99993.41;109414;1274;22575;-60
2022/07/18 01:04:11;;;;;;;2.50;1.60;;;;;;;12.60;81.98;99993.33;109345;1274;23174;-60
2022/07/18 01:06:38;;;;;;;4.00;1.90;;;;;;;12.59;82.02;99993.86;109287;1274;139210;-60
2022/07/18 01:09:05;;;;;;;3.10;1.60;;;;;;;12.57;81.86;99993.90;109376;1276;22265;-60
2022/07/18 01:11:33;;;;;;;4.20;1.90;;;;;;;12.57;82.09;99992.20;109194;1274;138979;-60
2022/07/18 01:14:02;;;;;;;1.70;1.40;;;;;;;12.56;82.11;99993.55;109287;1274;22447;-60
2022/07/18 01:16:29;;;;;;;3.30;1.60;;;;;;;12.57;82.35;99995.54;109283;1274;23223;-60
2022/07/18 01:18:56;;;;;;;2.80;1.60;;;;;;;12.57;82.40;99992.97;109240;1274;138174;-60
2022/07/18 01:21:23;;;;;;;;;;;;;;;12.59;82.52;99997.03;109388;1274;23255;-60
2022/07/18 01:23:50;;;;;;;2.80;1.70;;;;;;;12.58;82.55;99995.17;109289;1274;125941;-59
2022/07/18 01:26:17;;;;;;;3.00;1.80;;;;;;;12.59;82.87;99999.33;109418;1274;22459;-59
2022/07/18 01:28:46;;;;;;;2.10;1.70;;;;;;;12.61;83.10;100001.44;109424;1273;22653;-59
2022/07/18 01:31:13;;;;;;;2.40;1.70;;;;;;;12.63;83.09;100001.34;109246;1274;138503;-59
2022/07/18 01:33:39;;;;;;;3.10;1.40;;;;;;;12.65;83.07;100006.19;109407;1274;23428;-59
2022/07/18 01:36:07;;;;;;;1.50;1.40;;;;;;;12.67;83.43;100000.79;109087;1276;138651;-60
2022/07/18 01:38:34;;;;;;;1.80;1.60;;;;;;;12.70;83.46;100003.42;109344;1274;22453;-59
2022/07/18 01:41:01;;;;;;;5.70;1.70;;;;;;;12.71;83.40;100002.77;109360;1274;23417;-59
2022/07/18 01:43:27;;;;;;;2.90;1.80;;;;;;;12.70;83.49;100002.33;109244;1274;138156;-59
2022/07/18 01:45:54;;;;;;;2.00;1.80;;;;;;;12.68;83.37;99999.65;109392;1274;22561;-59
2022/07/18 01:48:23;;;;;;;8.00;2.20;;;;;;;12.68;83.48;100000.69;109293;1274;139715;-59
2022/07/18 01:50:50;;;;;;;3.40;1.90;;;;;;;12.66;83.42;100004.27;109375;1274;23140;-59
2022/07/18 01:53:17;;;;;;;5.00;2.10;;;;;;;12.66;83.68;100003.30;109286;1274;138747;-59
2022/07/18 01:55:44;;;;;;;4.10;1.90;;;;;;;12.65;83.69;100000.94;109332;1274;22565;-59
2022/07/18 01:58:11;;;;;;;2.90;2.10;;;;;;;12.63;83.67;100001.51;109401;1274;22428;-59
2022/07/18 02:00:37;;;;;;;1.90;1.70;;;;;;;12.62;83.71;100007.08;109265;1274;138247;-59
2022/07/18 02:03:04;;;;;;;2.30;1.90;;;;;;;12.62;84.03;100013.73;109351;1275;22428;-59
2022/07/18 02:05:31;;;;;;;2.20;1.90;;;;;;;12.61;83.64;100016.63;109236;1274;138537;-59
2022/07/18 02:07:58;;;;;;;4.30;2.00;;;;;;;12.61;83.70;100020.73;109392;1274;22911;-59
2022/07/18 02:10:25;;;;;;;4.20;1.90;;;;;;;12.59;83.65;100022.89;109429;1274;22404;-59
2022/07/18 02:12:51;;;;;;;;;;;;;;;12.56;83.91;100021.94;109262;1274;139063;-59
2022/07/18 02:15:18;;;;;;;3.40;2.20;;;;;;;12.54;84.08;100028.01;109421;1274;22469;-58
2022/07/18 02:17:45;;;;;;;;;;;;;;;12.50;84.05;100024.94;109307;1274;139205;-59
2022/07/18 02:20:12;;;;;;;6.50;2.00;;;;;;;12.43;84.21;100028.16;109390;1274;23359;-59
2022/07/18 02:22:39;;;;;;;5.80;2.00;;;;;;;12.42;84.38;100025.19;109392;1274;22413;-59
2022/07/18 02:25:06;;;;;;;4.40;2.30;;;;;;;12.41;84.49;100023.92;109326;1274;138810;-58
2022/07/18 02:27:33;;;;;;;2.40;1.60;;;;;;;12.41;84.77;100022.78;109410;1274;23159;-56
2022/07/18 02:30:00;;;;;;;3.00;1.90;;;;;;;12.39;84.70;100027.20;109282;1274;138043;-57
2022/07/18 02:32:27;;;;;;;2.10;1.90;;;;;;;12.36;84.80;100029.06;109291;1276;23610;-56
2022/07/18 02:34:54;;;;;;;;;;;;;;;12.35;84.91;100031.08;109217;1276;22551;-58
2022/07/18 02:37:20;;;;;;;2.60;1.60;;;;;;;12.35;85.28;100029.17;109269;1274;124855;-57
2022/07/18 02:39:47;;;;;;;2.40;1.70;;;;;;;12.35;85.15;100021.73;108160;1274;25338;-57
2022/07/18 02:42:14;;;;;;;2.50;1.60;;;;;;;12.37;85.37;100029.36;104813;1277;138960;-57
2022/07/18 02:44:41;;;;;;;4.10;1.60;;;;;;;12.37;85.07;100027.61;104798;1277;25471;-57
2022/07/18 02:47:07;;;;;;;;;;;;;;;12.36;84.91;100026.35;104849;1277;137624;-60
2022/07/18 02:49:34;;;;;;;3.70;1.50;;;;;;;12.36;85.13;100025.90;105048;1277;22599;-59
2022/07/18 02:52:03;;;;;;;;;;;;;;;12.35;85.07;100026.05;105069;1277;22547;-58
2022/07/18 02:54:31;;;;;;;2.90;1.90;;;;;;;12.35;85.16;100029.55;104767;1277;125188;-59
2022/07/18 02:56:58;;;;;;;2.80;2.10;;;;;;;12.34;85.14;100031.40;104765;1277;24934;-60
2022/07/18 02:59:25;;;;;;;;;;;;;;;12.33;85.14;100030.73;104646;1277;138682;-59
2022/07/18 03:01:52;;;;;;;2.80;1.70;;;;;;;12.34;85.20;100033.04;104861;1277;22697;-59
2022/07/18 03:04:19;;;;;;;4.70;2.00;;;;;;;12.35;85.23;100031.35;104798;1277;22829;-59
2022/07/18 03:06:46;;;;;;;2.50;1.90;;;;;;;12.38;85.54;100030.73;104896;1277;139183;-59
2022/07/18 03:09:13;;;;;;;4.90;2.10;;;;;;;12.40;85.53;100037.05;104960;1277;25597;-58
2022/07/18 03:11:39;;;;;;;4.00;1.90;;;;;;;12.43;85.42;100036.73;104765;1276;140258;-59
2022/07/18 03:14:06;;;;;;;;;;;;;;;12.46;85.38;100039.93;104935;1277;23188;-60
2022/07/18 03:16:33;;;;;;;4.00;2.00;;;;;;;12.49;85.57;100039.77;104973;1276;24026;-57
2022/07/18 03:19:00;;;;;;;4.00;2.30;;;;;;;12.51;85.23;100044.96;109020;1276;138758;-58
2022/07/18 03:21:28;;;;;;;;;;;;;;;12.51;85.11;100053.33;109086;1277;23369;-59
2022/07/18 03:23:55;;;;;;;6.50;2.30;;;;;;;12.50;84.91;100058.73;109032;1276;125441;-59
2022/07/18 03:26:22;;;;;;;6.00;2.60;;;;;;;12.49;85.04;100062.49;109224;1276;22439;-57
2022/07/18 03:28:49;;;;;;;4.20;2.10;;;;;;;12.51;85.07;100068.70;109245;1276;22440;-57
2022/07/18 03:31:16;;;;;;;4.90;2.10;;;;;;;12.51;84.86;100066.02;109148;1276;140164;-57
2022/07/18 03:33:43;;;;;;;;;;;;;;;12.52;84.80;100062.30;109215;1276;23339;-58
2022/07/18 03:36:10;;;;;;;4.00;2.30;;;;;;;12.51;84.79;100065.48;109189;1275;124530;-58
2022/07/18 03:38:37;;;;;;;5.00;2.00;;;;;;;12.53;85.00;100065.16;109207;1276;22428;-57
2022/07/18 03:41:04;;;;;;;2.80;1.70;;;;;;;12.55;84.99;100066.55;109226;1276;22461;-58
2022/07/18 03:43:30;;;;;;;6.70;1.50;;;;;;;12.57;85.03;100066.71;109162;1276;22454;-57
2022/07/18 03:45:57;;;;;;;6.00;1.90;;;;;;;12.59;84.77;100068.92;109166;1276;22430;-58
2022/07/18 03:48:24;;;;;;;1.60;1.50;;;;;;;12.61;84.76;100070.16;109057;1276;139244;-58
2022/07/18 03:50:51;;;;;;;;;;;;;;;12.64;85.10;100065.27;109276;1276;22712;-57
2022/07/18 03:53:18;;;;;;;4.40;2.10;;;;;;;12.68;85.13;100066.02;109108;1277;125205;-58
2022/07/18 03:55:45;;;;;;;2.50;1.90;;;;;;;12.70;84.96;100068.17;109163;1276;22503;-58
2022/07/18 03:58:12;;;;;;;4.80;1.80;;;;;;;12.74;84.94;100068.64;109143;1276;22472;-58
2022/07/18 04:00:39;;;;;;;3.50;1.90;;;;;;;12.76;85.00;100061.61;109025;1276;139343;-58
2022/07/18 04:03:05;;;;;;;4.10;1.70;;;;;;;12.81;84.77;100067.19;109236;1275;22413;-58
2022/07/18 04:05:32;;;;;;;;;;;;;;;12.84;84.93;100067.81;109101;1276;139441;-58
2022/07/18 04:07:59;;;;;;;2.20;1.90;;;;;;;12.88;84.73;100068.07;109225;1276;23167;-57
2022/07/18 04:10:26;;;;;;;4.70;2.40;;;;;;;12.92;84.99;100069.42;109174;1276;22562;-57
2022/07/18 04:12:53;;;;;;;2.40;1.60;;;;;;;12.99;84.78;100066.52;109009;1277;138383;-57
2022/07/18 04:15:21;;;;;;;5.20;1.90;;;;;;;13.05;84.91;100065.49;109087;1277;23187;-57
2022/07/18 04:17:48;;;;;;;2.60;1.90;;;;;;;13.10;84.91;100062.86;109045;1277;139545;-57
2022/07/18 04:20:15;;;;;;;3.30;2.10;;;;;;;13.15;84.84;100058.41;109157;1277;23109;-59
2022/07/18 04:22:56;;;;;;;2.50;1.80;;;;;;;13.20;84.54;100057.20;109285;1276;22491;-59
2022/07/18 04:25:24;;;;;;;3.50;2.10;;;;;;;13.27;84.50;100061.14;109271;1274;139446;-59
2022/07/18 04:27:52;;;;;;;3.30;2.00;;;;;;;13.31;84.55;100065.83;109283;1274;22456;-59
2022/07/18 04:30:22;;;;;;;2.80;1.90;;;;;;;13.36;84.51;100065.81;109146;1276;139256;-59
2022/07/18 04:32:48;;;;;;;3.20;2.00;;;;;;;13.43;84.21;100066.40;109367;1277;22506;-59
2022/07/18 04:35:19;;;;;;;4.00;1.80;;;;;;;13.48;84.07;100066.60;109167;1276;138882;-59
2022/07/18 04:37:46;;;;;;;5.20;2.20;;;;;;;13.53;84.13;100070.59;109196;1276;23632;-59
2022/07/18 04:40:12;;;;;;;3.90;2.20;;;;;;;13.58;84.01;100074.38;107132;1278;22683;-59
2022/07/18 04:42:39;;;;;;;3.80;2.20;;;;;;;13.63;83.88;100074.64;104925;1277;138958;-57
2022/07/18 04:45:07;;;;;;;6.50;2.30;;;;;;;13.66;83.97;100076.25;105076;1277;22566;-57
2022/07/18 04:47:34;;;;;;;2.60;1.90;;;;;;;13.71;84.03;100079.02;104829;1276;139242;-57
2022/07/18 04:50:02;;;;;;;2.70;2.10;;;;;;;13.76;83.84;100077.51;104984;1277;25993;-57
2022/07/18 04:52:36;;;;;;;5.90;2.40;;;;;;;13.80;83.48;100074.14;105097;1277;25414;-57
2022/07/18 04:55:03;;;;;;;2.60;1.90;;;;;;;13.83;83.39;100066.88;109251;1275;138498;-58
2022/07/18 04:57:30;;;;;;;5.30;2.30;;;;;;;13.87;83.25;100071.36;109386;1276;23164;-58
2022/07/18 04:59:57;;;;;;;3.40;2.20;;;;;;;13.90;83.05;100077.52;109145;1276;138672;-57
2022/07/18 05:02:23;;;;;;;4.00;2.00;;;;;;;13.94;82.88;100080.14;109168;1276;22627;-57
2022/07/18 05:04:50;;;;;;;3.40;2.30;;;;;;;13.99;82.84;100081.14;109271;1277;22482;-59
2022/07/18 05:07:17;;;;;;;3.40;2.00;;;;;;;14.05;82.62;100081.00;109183;1275;139160;-58
2022/07/18 05:09:44;;;;;;;3.90;2.30;;;;;;;14.10;82.51;100077.47;109283;1276;22453;-59
2022/07/18 05:12:10;;;;;;;5.20;2.40;;;;;;;14.17;82.37;100076.87;109020;1276;138543;-61
2022/07/18 05:14:37;;;;;;;3.20;2.10;;;;;;;14.25;82.09;100080.54;109264;1276;22452;-61
2022/07/18 05:17:05;;;;;;;4.10;1.90;;;;;;;14.33;81.89;100079.25;109107;1276;139011;-61
2022/07/18 05:19:32;;;;;;;6.90;1.90;;;;;;;14.47;81.84;100083.71;109232;1276;22618;-61
2022/07/18 05:21:58;;;;;;;6.80;2.00;;;;;;;14.67;80.93;100082.48;109415;1274;22449;-61
2022/07/18 05:24:25;;;;;;;4.30;2.20;;;;;;;14.89;80.26;100078.64;109164;1276;139929;-61
2022/07/18 05:26:52;;;;;;;5.10;3.30;;;;;;;15.16;79.64;100075.74;109286;1276;23443;-61
2022/07/18 05:29:19;;;;;;;3.50;2.70;;;;;;;15.51;78.76;100072.77;109079;1276;140332;-61
2022/07/18 05:31:45;;;;;;;6.10;2.70;;;;;;;15.90;77.81;100068.45;109359;1274;22527;-62
2022/07/18 05:34:13;;;;;;;4.40;2.20;;;;;;;16.31;77.12;100068.08;109217;1274;23215;-62
2022/07/18 05:36:39;;;;;;;5.90;2.20;;;;;;;16.77;75.75;100071.35;109156;1277;138303;-62
2022/07/18 05:39:06;;;;;;;3.50;2.20;;;;;;;17.26;74.37;100071.04;109168;1276;22456;-61
2022/07/18 05:41:33;;;;;;;3.70;2.00;;;;;;;17.73;72.88;100066.37;109094;1276;138796;-60
2022/07/18 05:44:00;;;;;;;4.10;2.00;;;;;;;18.23;71.20;100067.28;109234;1276;22472;-62
2022/07/18 05:46:26;;;;;;;3.60;2.50;;;;;;;18.68;68.86;100067.46;109273;1276;22452;-62
2022/07/18 05:48:53;;;;;;;5.50;2.30;;;;;;;19.01;67.38;100069.23;109174;1276;139201;-62
2022/07/18 05:51:20;;;;;;;2.30;1.70;;;;;;;19.33;66.36;100065.05;109379;1276;22447;-62
2022/07/18 05:53:48;;;;;;;3.60;2.10;;;;;;;19.72;65.28;100068.53;108948;1276;139369;-61
2022/07/18 05:56:15;;;;;;;5.40;2.20;;;;;;;20.10;64.22;100068.23;109209;1276;22439;-63
2022/07/18 05:58:42;;;;;;;5.60;2.00;;;;;;;20.39;62.78;100069.53;109159;1276;22551;-62
2022/07/18 06:01:16;;;;;;;3.30;1.80;;;;;;;20.51;61.72;100068.54;109032;1276;137514;-64
2022/07/18 06:03:43;;;;;;;3.00;1.80;;;;;;;20.50;60.83;100071.96;109198;1276;22509;-62
2022/07/18 06:06:10;;;;;;;2.00;1.80;;;;;;;20.43;60.77;100068.30;109095;1276;139193;-61
2022/07/18 06:08:37;;;;;;;4.10;2.00;;;;;;;20.39;60.98;100071.70;109117;1276;23581;-61
2022/07/18 06:11:06;;;;;;;2.20;2.00;;;;;;;20.32;61.28;100070.67;109232;1276;22457;-62
2022/07/18 06:13:34;;;;;;;3.00;1.90;;;;;;;20.25;61.65;100069.02;109257;1276;22455;-62
2022/07/18 06:16:01;;;;;;;3.50;2.10;;;;;;;20.20;61.54;100070.14;109257;1275;22478;-61
2022/07/18 06:18:28;;;;;;;2.20;1.80;;;;;;;20.10;61.16;100064.59;109109;1276;138412;-62
2022/07/18 06:20:54;;;;;;;3.90;1.90;;;;;;;19.96;61.10;100067.13;109286;1277;23331;-62
2022/07/18 06:23:21;;;;;;;3.10;1.80;;;;;;;19.76;60.67;100069.57;109197;1276;137742;-62
2022/07/18 06:25:48;;;;;;;3.40;2.20;;;;;;;19.52;60.89;100070.33;109288;1276;22421;-62
2022/07/18 06:28:15;;;;;;;3.00;2.30;;;;;;;19.25;61.67;100076.52;109298;1274;22489;-62
2022/07/18 06:30:42;;;;;;;3.30;2.20;;;;;;;19.01;62.67;100079.02;109220;1274;138332;-62
2022/07/18 06:33:09;;;;;;;3.50;2.00;;;;;;;18.87;63.32;100074.66;109211;1276;22455;-61
2022/07/18 06:35:48;;;;;;;3.10;2.00;;;;;;;18.75;63.79;100070.09;109218;1276;139165;-60
2022/07/18 06:38:15;;;;;;;2.00;1.80;;;;;;;18.66;64.36;100072.08;109259;1275;22431;-60
2022/07/18 06:40:42;;;;;;;3.40;2.20;;;;;;;18.63;64.82;100068.92;109269;1274;22464;-60
2022/07/18 06:43:09;;;;;;;2.50;2.10;;;;;;;18.58;64.63;100064.86;109153;1276;140130;-61
2022/07/18 06:45:36;;;;;;;3.70;2.00;;;;;;;18.51;65.00;100063.16;109224;1277;22465;-62
2022/07/18 06:48:03;;;;;;;2.40;1.70;;;;;;;18.45;65.58;100064.36;109072;1276;139516;-62
2022/07/18 06:50:30;;;;;;;5.00;2.20;;;;;;;18.43;65.76;100065.33;109298;1276;22426;-62
2022/07/18 06:52:56;;;;;;;2.50;1.90;;;;;;;18.41;66.02;100067.22;109321;1277;22427;-62
2022/07/18 06:55:23;;;;;;;3.10;2.30;;;;;;;18.43;66.05;100062.62;109203;1276;138075;-62
2022/07/18 06:57:50;;;;;;;4.70;1.70;;;;;;;18.44;66.31;100062.73;109380;1276;22427;-61
2022/07/18 07:00:17;;;;;;;5.00;2.40;;;;;;;18.46;66.62;100062.57;109235;1276;140948;-61
2022/07/18 07:02:46;;;;;;;3.30;1.90;;;;;;;18.47;66.10;100065.69;109248;1276;22442;-60
2022/07/18 07:05:14;;;;;;;5.50;2.20;;;;;;;18.48;66.27;100064.30;109234;1274;138438;-61
2022/07/18 07:07:41;;;;;;;4.10;2.60;;;;;;;18.50;66.46;100064.77;109364;1274;22490;-61
2022/07/18 07:10:14;;;;;;;4.20;2.30;;;;;;;18.54;66.37;100065.33;109200;1276;22462;-60
2022/07/18 07:12:42;;;;;;;3.10;1.90;;;;;;;18.56;66.61;100067.95;109150;1276;138279;-61
2022/07/18 07:15:09;;;;;;;3.60;2.00;;;;;;;18.58;66.39;100068.84;109261;1276;22465;-59
2022/07/18 07:17:36;;;;;;;3.40;2.20;;;;;;;18.60;66.37;100064.56;109149;1275;138870;-59
2022/07/18 07:20:05;;;;;;;3.80;2.20;;;;;;;18.63;66.13;100068.58;109183;1276;23411;-60
2022/07/18 07:22:40;;;;;;;3.50;1.80;;;;;;;18.67;64.62;100071.02;109366;1274;23119;-60
2022/07/18 07:25:08;;;;;;;3.40;2.20;;;;;;;18.63;64.00;100067.48;109037;1276;139070;-60
2022/07/18 07:27:35;;;;;;;4.60;1.90;;;;;;;18.59;64.59;100064.80;109358;1274;22427;-60
2022/07/18 07:30:02;;;;;;;2.60;1.90;;;;;;;18.60;64.29;100065.29;109200;1274;140157;-60
2022/07/18 07:32:33;;;;;;;3.40;2.20;;;;;;;18.60;64.04;100065.95;109262;1276;23071;-59
2022/07/18 07:35:01;;;;;;;4.20;2.10;;;;;;;18.60;64.48;100064.13;109380;1274;23391;-59
2022/07/18 07:37:27;;;;;;;2.70;1.60;;;;;;;18.61;63.80;100064.92;109299;1274;137737;-59
2022/07/18 07:39:55;;;;;;;3.60;2.40;;;;;;;18.66;63.90;100068.27;109313;1274;22503;-59
2022/07/18 07:42:22;;;;;;;4.00;1.30;;;;;;;18.70;63.87;100068.84;109230;1274;139477;-60
2022/07/18 07:44:49;;;;;;;3.50;2.30;;;;;;;18.73;63.01;100074.09;109297;1276;22441;-60
2022/07/18 07:47:16;;;;;;;2.90;1.60;;;;;;;18.76;63.03;100073.61;109178;1277;138723;-60
2022/07/18 07:49:42;;;;;;;2.10;1.60;;;;;;;18.79;62.28;100072.72;109187;1275;22417;-59
2022/07/18 07:52:11;;;;;;;1.80;1.60;;;;;;;18.82;62.18;100074.73;109340;1274;23211;-59
2022/07/18 07:54:38;;;;;;;2.70;1.60;;;;;;;18.82;61.54;100074.16;109119;1274;139189;-60
2022/07/18 07:57:05;;;;;;;2.50;1.70;;;;;;;18.79;61.44;100076.52;109196;1276;22456;-62
2022/07/18 07:59:32;;;;;;;3.00;1.90;;;;;;;18.79;61.18;100067.41;107248;1274;138408;-61
2022/07/18 08:01:59;;;;;;;3.20;1.70;;;;;;;18.79;62.11;100067.64;106978;1277;22467;-61
2022/07/18 08:04:26;;;;;;;2.60;1.40;;;;;;;18.84;62.43;100068.77;107110;1276;24026;-61
2022/07/18 08:06:53;;;;;;;2.80;1.20;;;;;;;18.90;62.25;100072.28;107098;1274;139869;-61
2022/07/18 08:09:20;;;;;;;2.40;1.50;;;;;;;18.96;60.65;100072.07;107362;1274;24452;-61
2022/07/18 08:11:47;;;;;;;2.10;1.50;;;;;;;18.98;59.86;100067.84;107160;1274;139830;-59
2022/07/18 08:14:14;;;;;;;1.30;1.10;;;;;;;18.99;59.83;100066.51;107283;1274;22439;-60
2022/07/18 08:16:41;;;;;;;2.40;1.50;;;;;;;19.04;60.41;100062.29;107279;1274;22950;-61
2022/07/18 08:19:07;;;;;;;1.80;1.30;;;;;;;19.11;59.93;100057.36;107168;1274;138261;-61
2022/07/18 08:21:34;;;;;;;2.10;1.30;;;;;;;19.19;59.40;100060.73;107069;1277;22399;-60
2022/07/18 08:24:01;;;;;;;2.60;1.10;;;;;;;19.20;58.20;100060.67;107024;1277;139223;-60
2022/07/18 08:26:33;;;;;;;4.60;1.10;;;;;;;19.23;57.93;100064.55;107122;1278;24395;-60
2022/07/18 08:29:02;;;;;;;3.50;1.30;;;;;;;19.23;57.45;100058.83;107260;1274;24814;-60
2022/07/18 08:31:29;;;;;;;5.00;1.60;;;;;;;19.26;57.23;100060.38;107069;1277;138252;-60
2022/07/18 08:33:56;;;;;;;3.20;1.10;;;;;;;19.31;57.57;100057.02;107285;1277;24010;-60
2022/07/18 08:39:21;;;;;;;2.10;1.40;;;;;;;19.35;56.32;100059.28;101128;1308;545175;-61
2022/07/18 08:41:47;;;;;;;3.60;1.20;;;;;;;19.32;56.73;100061.06;103035;1286;137628;-60
2022/07/18 08:44:14;;;;;;;1.40;1.30;;;;;;;19.36;57.27;100058.80;102706;1286;22619;-60
2022/07/18 08:46:41;;;;;;;1.10;1.00;;;;;;;19.44;57.27;100063.31;102823;1288;22654;-60
2022/07/18 08:49:08;;;;;;;1.50;1.10;;;;;;;19.53;56.56;100065.52;102679;1289;138521;-60
2022/07/18 08:51:35;;;;;;;1.30;1.00;;;;;;;19.60;55.97;100063.35;102798;1289;22577;-60
2022/07/18 08:54:03;;;;;;;1.10;1.00;;;;;;;19.65;55.88;100066.73;102619;1286;293832;-60
2022/07/18 08:56:30;;;;;;;1.30;0.90;;;;;;;19.67;55.33;100065.48;102902;1286;22602;-60
2022/07/18 08:58:57;;;;;;;2.00;1.20;;;;;;;19.64;55.17;100066.69;103023;1286;23798;-60
2022/07/18 09:01:23;;;;;;;1.80;1.10;;;;;;;19.65;55.06;100067.83;102941;1286;138432;-60
2022/07/18 09:04:14;;;;;;;2.20;1.60;;;;;;;19.72;55.10;100066.16;102995;1286;26010;-60
2022/07/18 09:06:44;;;;;;;3.80;1.60;;;;;;;19.81;54.80;100063.16;102685;1286;138832;-60
2022/07/18 09:09:13;;;;;;;3.20;1.10;;;;;;;19.87;54.69;100061.52;102947;1286;22588;-59
2022/07/18 09:11:53;;;;;;;2.10;1.20;;;;;;;19.90;55.18;100056.86;102847;1286;138166;-61
2022/07/18 09:14:27;;;;;;;1.20;0.80;;;;;;;19.95;55.63;100051.26;102893;1286;23426;-61
2022/07/18 09:17:08;;;;;;;1.50;1.20;;;;;;;19.98;54.37;100046.79;102914;1286;24015;-58
2022/07/18 09:19:39;;;;;;;3.20;1.00;;;;;;;19.99;53.17;100044.16;102910;1286;25331;-60
2022/07/18 09:22:17;;;;;;;3.60;1.00;;;;;;;20.02;53.47;100049.08;102858;1286;22586;-61
2022/07/18 09:24:52;;;;;;;2.30;1.20;;;;;;;20.03;53.05;100049.67;102719;1286;139069;-61
2022/07/18 09:27:34;;;;;;;2.50;0.90;;;;;;;20.03;53.33;100050.86;103227;1283;25998;-61
2022/07/18 09:30:08;;;;;;;1.30;0.80;;;;;;;20.04;54.07;100045.13;103093;1283;138655;-61
2022/07/18 09:32:39;;;;;;;0.90;0.80;;;;;;;20.09;53.01;100048.09;106628;1283;22424;-61
2022/07/18 09:35:07;;;;;;;2.00;0.90;;;;;;;20.13;52.74;100047.64;108161;1282;138418;-61
2022/07/18 09:37:34;;;;;;;0.90;0.80;;;;;;;20.17;51.59;100047.41;108676;1281;23106;-61
2022/07/18 09:40:15;;;;;;;1.80;1.00;;;;;;;20.17;51.30;100046.73;108497;1280;22449;-62
2022/07/18 09:42:53;;;;;;;0.90;0.80;;;;;;;20.15;52.16;100045.18;108543;1281;137785;-62
2022/07/18 09:45:42;;;;;;;0.90;0.80;;;;;;;20.16;52.04;100046.82;108593;1282;22464;-62
2022/07/18 09:48:10;;;;;;;0.60;0.60;;;;;;;20.13;50.23;100044.32;108462;1283;138873;-62
2022/07/18 09:50:43;;;;;;;1.80;1.00;;;;;;;20.10;50.68;100044.11;108541;1282;22477;-60
2022/07/18 09:53:12;;;;;;;3.20;1.00;;;;;;;20.11;50.98;100044.19;108438;1282;139293;-61
2022/07/18 09:56:00;;;;;;;1.30;0.90;;;;;;;20.19;51.59;100046.42;108545;1282;22451;-60
2022/07/18 09:58:28;;;;;;;1.00;0.90;;;;;;;20.27;50.61;100042.92;108549;1281;23332;-60
2022/07/18 10:00:56;;;;;;;0.90;0.80;;;;;;;20.33;50.68;100047.20;108457;1283;137341;-61
2022/07/18 10:03:23;;;;;;;5.60;1.40;;;;;;;20.38;50.58;100044.58;108498;1283;22420;-60
2022/07/18 10:05:51;;;;;;;1.10;0.80;;;;;;;20.41;51.06;100042.04;108426;1283;138739;-61
2022/07/18 10:08:20;;;;;;;3.80;0.70;;;;;;;20.45;51.70;100046.48;108527;1282;22492;-62
2022/07/18 10:10:48;;;;;;;3.80;1.20;;;;;;;20.52;51.45;100050.60;109051;1277;22441;-62
2022/07/18 10:13:15;;;;;;;4.80;0.90;;;;;;;20.59;49.72;100049.61;108945;1277;137305;-62
2022/07/18 10:15:42;;;;;;;0.60;0.60;;;;;;;20.66;48.81;100047.05;109037;1277;22635;-62
2022/07/18 10:18:13;;;;;;;2.80;0.90;;;;;;;20.75;48.85;100047.34;108910;1278;139448;-62
2022/07/18 10:20:45;;;;;;;3.80;0.80;;;;;;;20.86;47.97;100039.18;109060;1277;22469;-62
2022/07/18 10:23:36;;;;;;;0.80;0.80;;;;;;;20.89;48.36;100038.02;108942;1277;139391;-62
2022/07/18 10:26:15;;;;;;;1.20;0.90;;;;;;;20.93;49.19;100036.50;109056;1276;22475;-63
2022/07/18 10:29:00;;;;;;;0.80;0.80;;;;;;;20.98;48.85;100036.93;109108;1277;22570;-62
2022/07/18 10:31:38;;;;;;;0.80;0.70;;;;;;;21.03;49.39;100038.60;108941;1279;137581;-61
2022/07/18 10:34:12;;;;;;;0.70;0.60;;;;;;;21.11;49.19;100036.40;108865;1279;22473;-62
2022/07/18 10:36:51;;;;;;;0.90;0.80;;;;;;;21.20;49.14;100036.98;108917;1279;137291;-62
2022/07/18 10:39:23;;;;;;;3.30;0.70;;;;;;;21.29;47.85;100025.21;109068;1279;22543;-61
2022/07/18 10:41:57;;;;;;;0.60;0.60;;;;;;;21.33;47.89;100024.40;108956;1277;138294;-62
2022/07/18 10:44:30;;;;;;;2.00;0.90;;;;;;;21.34;47.90;100027.23;108945;1279;22548;-61
2022/07/18 10:47:03;;;;;;;0.60;0.60;;;;;;;21.35;47.87;100026.30;108987;1279;22644;-62
2022/07/18 10:49:53;;;;;;;1.80;0.90;;;;;;;21.38;48.35;100025.74;108827;1279;137243;-62
2022/07/18 10:52:23;;;;;;;0.70;0.70;;;;;;;21.47;48.15;100024.09;109000;1278;23004;-62
2022/07/18 10:55:17;;;;;;;1.10;0.70;;;;;;;21.50;47.13;100023.13;108945;1278;136962;-62
2022/07/18 10:57:50;;;;;;;1.10;0.80;;;;;;;21.47;47.71;100022.59;109078;1279;22481;-61
2022/07/18 11:00:42;;;;;;;0.90;0.80;;;;;;;21.42;47.50;100018.38;108965;1279;137727;-61
2022/07/18 11:03:10;;;;;;;5.00;0.80;;;;;;;21.35;47.67;100019.12;108706;1279;23295;-62
2022/07/18 11:05:49;;;;;;;0.70;0.70;;;;;;;21.31;47.63;100021.28;108952;1278;139112;-61
2022/07/18 11:08:18;;;;;;;0.90;0.80;;;;;;;21.26;46.77;100016.52;109088;1278;22472;-60
2022/07/18 11:10:50;;;;;;;0.50;0.50;;;;;;;21.18;46.73;100017.23;109050;1279;22481;-60
2022/07/18 11:16:04;;;;;;;0.80;0.80;;;;;;;21.06;47.53;100028.49;109051;1278;22457;-60
2022/07/18 11:18:32;;;;;;;2.40;1.10;;;;;;;20.99;47.48;100028.44;108872;1278;140433;-60
2022/07/18 11:20:59;;;;;;;2.00;0.60;;;;;;;20.92;47.90;100024.41;108985;1279;23335;-60
2022/07/18 11:23:27;;;;;;;2.00;0.80;;;;;;;20.86;48.21;100023.33;108791;1278;137752;-60
2022/07/18 11:26:00;;;;;;;2.10;0.70;;;;;;;20.82;48.23;100025.20;109065;1279;23273;-60
2022/07/18 11:28:27;;;;;;;2.50;0.60;;;;;;;20.76;48.48;100023.24;108990;1278;22796;-61
2022/07/18 11:31:08;;;;;;;1.50;0.80;;;;;;;20.70;48.44;100021.89;108805;1279;137810;-61